Terminal Aerodrome Forecast
Issued by NWS Twin Cities, MN

Home | Current Version | Previous Version | Graphics & Text | Print | Product List | Glossary On
Versions: 1 2 3 4 5 6 7 8 9 10 11 12 13 14 15
000
FTUS43 KMPX 170520
TAFEAU
TAF
KEAU 170520Z 1706/1806 19008KT P6SM BKN250
     FM171230 20007KT 2SM -SN BR OVC022
      TEMPO 1713/1716 3/4SM -SN BR VV008
     FM171630 25008KT P6SM BKN050
     FM171900 26010KT P6SM SCT200=

USA.gov is the U.S. government's official web portal to all federal, state and local government web resources and services.